Historyczne dane pomiarowe

Dodano dane terminowe – wersja testowa.

Dane z okresu 1951-2019

Wersja bazy: 1.34 [2019-03-16, lista zmian], aktualizacja planowana na 2019-04-15

Dane meteo z obszaru Polski uzyskane na podstawie danych udostępnionych przez Instytut Meteorologii i Gospodarki Wodnej – Państwowy Instytut Badawczy.

 

Wybierz Datę:    

       

TemperaturaWilgotnośćWiatrCiśnienieOpadyŚniegCzas trwania zjawisk
 Stacja t tx tn tng RH VA  wxwx mslp ppp RRR   cm mm wxwxwxwxwxwxwx
1994-08-14 15.6 20.4 13.6 10.1 70.8- 3.7 1.7---- 0.0------------
1994-08-13 17.5 22.9 15.8 14.6 83.8- 7.3 2.7---- 0.0------------
1994-08-12 16.6 21.1 13.7 12.6 88.5- 8.0 1.0---- 4.5------------
1994-08-11 20.3 23.6 17.8 16.4 88.0- 7.0 2.0---- 0.8------------
1994-08-10 20.2 27.4 12.2 9.4 78.0- 2.0 1.7---- 25.3------------
1994-08-09 18.6 24.6 18.4 15.1 92.8- 5.3 1.3---- 7.5------------
1994-08-08 21.6 28.2 14.2 12.4 80.3- 7.7 1.0---- 8.4------------
1994-08-07 24.4 32.4 19.4 14.1 75.8- 3.7 0.7---- 7.0------------
1994-08-06 25.4 34.3 15.7 11.1 60.0- 3.3 0.3---- 0.0------------
1994-08-05 24.5 31.2 16.4 12.0 65.3- 0.7 1.0---- 0.0------------
1994-08-04 23.1 29.5 17.7 12.6 66.5- 1.0 1.0---- 0.0------------
1994-08-03 24.3 30.3 19.2 15.6 69.5- 3.3 2.0---- 0.2------------
1994-08-02 26.3 30.8 21.1 16.3 53.5- 6.3 0.3---- 0.0------------
1994-08-01 26.7 35.5 19.1 13.9 54.5- 3.7 1.7---- 0.7------------
1994-07-31 26.5 35.4 18.7 11.6 50.0- 0.0 0.7---- 0.0------------
1994-07-30 26.0 34.4 14.5 9.1 49.0- 0.0 0.7---- 0.0------------
1994-07-29 25.4 33.4 15.7 9.1 50.5- 0.0 0.7---- 0.0------------
1994-07-28 24.9 33.2 14.9 9.6 51.8- 1.3 0.7---- 0.0------------
1994-07-27 24.9 33.3 16.1 10.6 56.0- 1.3 1.0---- 0.0------------
1994-07-26 24.6 32.5 15.8 10.5 57.3- 0.7 0.7---- 0.0------------
1994-07-25 24.1 31.6 14.7 9.9 57.5- 0.3 0.3---- 0.0------------
1994-07-24 22.8 30.2 14.6 9.2 55.5- 0.7 1.0---- 0.0------------
1994-07-23 22.0 28.4 13.6 7.1 58.3- 1.0 1.0---- 0.0------------
1994-07-22 21.6 29.5 12.2 6.6 60.8- 0.7 1.3---- 0.0------------
1994-07-21 19.9 26.7 11.2 5.9 61.0- 0.0 2.0---- 0.0------------
1994-07-20 19.7 24.1 14.1 10.5 55.8- 1.3 2.0---- 0.0------------
1994-07-19 19.7 25.0 14.9 13.8 77.5- 8.0 1.7---- 0.0------------
1994-07-18 20.7 26.6 15.4 12.9 78.8- 5.0 1.0---- 0.0------------
1994-07-17 20.7 29.0 15.3 13.1 78.0- 3.7 2.0---- 14.0------------
1994-07-16 21.7 29.9 16.8 11.1 78.3- 3.0 1.0---- 10.9------------
1994-07-15 22.0 27.9 15.2 10.5 70.0- 4.3 1.0---- 0.0------------
1994-07-14 22.7 29.6 13.2 8.7 66.0- 4.7 0.3---- 0.0------------
1994-07-13 21.3 27.1 13.9 8.6 69.3- 2.7 2.0---- 0.0------------
1994-07-12 20.5 25.4 16.3 14.6 71.3- 2.0 2.3---- 0.0------------
1994-07-11 19.2 25.0 12.7 8.2 73.0- 5.3 1.3---- 0.0------------
1994-07-10 16.0 21.6 11.7 7.3 80.0- 5.7 1.0---- 0.2------------
1994-07-09 15.8 18.8 14.7 12.7 80.3- 6.3 2.3---- 7.3------------
1994-07-08 16.6 21.1 13.7 12.6 75.0- 4.3 3.0---- 0.3------------
1994-07-07 18.4 25.9 12.2 6.8 81.8- 7.7 0.7---- 6.2------------
1994-07-06 20.2 25.7 12.7 6.6 64.0- 4.0 0.3---- 0.0------------
1994-07-05 21.5 29.3 15.2 11.5 69.8- 6.7 0.3---- 0.0------------
1994-07-04 23.2 29.9 12.1 4.7 60.8- 1.3 1.3---- 0.0------------
1994-07-03 20.8 27.5 11.9 4.4 59.5- 1.3 1.0---- 0.0------------
1994-07-02 19.7 26.6 7.9 4.4 63.8- 0.7 0.3---- 0.0------------
1994-07-01 19.9 24.5 15.7 12.1 65.3- 1.0 1.3---- 0.0------------
1994-06-30 22.8 31.2 19.7 15.6 79.3- 4.7 0.7---- 0.0------------
1994-06-29 25.9 31.4 18.3 12.5 69.3- 0.0 1.0---- 0.0------------
1994-06-28 26.3 31.1 22.7 15.5 70.5- 3.3 1.3---- 0.0------------
1994-06-27 26.9 32.8 19.4 14.0 68.0- 2.3 0.3---- 0.0------------
1994-06-26 22.1 29.8 10.8 4.4 71.8- 1.3 0.3---- 0.0------------
1994-06-25 17.0 23.9 6.2 -0.1 62.3- 0.0 0.3---- 0.0------------
1994-06-24 14.2 21.3 8.7 2.7 64.5- 0.0 1.7---- 0.0------------
1994-06-23 18.5 21.9 15.8 5.6 64.5- 4.0 3.3---- 0.0------------
1994-06-22 18.8 25.3 11.0 6.1 74.3- 3.0 2.3---- 0.0------------
1994-06-21 16.7 22.0 9.2 4.2 71.5- 2.0 0.7---- 0.0------------
1994-06-20 18.5 23.8 13.1 7.2 78.0- 4.7 1.7---- 0.0------------
1994-06-19 18.9 26.1 12.5 10.7 75.3- 5.0 1.3---- 0.0------------
1994-06-18 13.8 19.6 6.2 1.4 78.3- 7.3 2.3---- 2.4------------
1994-06-17 11.9 15.7 9.2 7.1 79.0- 6.7 2.0---- 0.0------------
1994-06-16 13.1 19.0 8.7 3.2 82.3- 6.0 2.3---- 0.8------------
235.0 ms

 

Źródłem pochodzenia danych jest Instytut Meteorologii i Gospodarki Wodnej – Państwowy Instytut Badawczy. Dane Instytutu Meteorologii i Gospodarki Wodnej – Państwowego Instytutu Badawczego zostały przetworzone.

Dane źródłowe można odnaleźć na stronie https://dane.imgw.pl